Airport Name : Corvallis Muni

Other Name : Corvallis Muni

ICAO : KCVO

IATA : CVO

FAA : CVO

Latitude : 44.497194

Longitude : -123.289831

Country : United States

Local Date and Time : 01 Mar 2021 05:05

 

TAF (Terminal Aerodrome Forecast)

 

METAR (METeorological Aerodrome Report)

KCVO 011256Z AUTO 00000KT 10SM CLR 03/02 A3006 RMK AO2 SLP182 T00280022

KCVO 011156Z AUTO 00000KT 10SM CLR 03/03 A3006 RMK AO2 SLP182 T00280028 10056 20022 56020

KCVO 011056Z AUTO 00000KT 10SM CLR 03/03 A3008 RMK AO2 SLP186 T00330033

KCVO 010956Z AUTO 00000KT 10SM CLR 03/03 A3011 RMK AO2 SLP197 T00280028

To Charter a Jet Click here.